createdAt,value
2023-04-18T00:01:39.575Z,99502.19
2023-04-18T00:04:06.430Z,99500.66
2023-04-18T00:06:35.673Z,99501.72
2023-04-18T00:09:02.566Z,99499.34
2023-04-18T00:11:30.122Z,99500.09
2023-04-18T00:13:57.329Z,99492.56
2023-04-18T00:16:24.319Z,99488.38
2023-04-18T00:18:52.560Z,99488.47
2023-04-18T00:21:19.210Z,99484.75
2023-04-18T00:23:46.141Z,99489.16
2023-04-18T00:26:13.138Z,99485.00
2023-04-18T00:28:39.725Z,99489.03
2023-04-18T00:31:06.412Z,99482.84
2023-04-18T00:33:34.488Z,99483.31
2023-04-18T00:36:01.131Z,99479.47
2023-04-18T00:38:27.764Z,99486.94
2023-04-18T00:40:54.362Z,99481.47
2023-04-18T00:43:26.663Z,99483.75
2023-04-18T00:45:53.894Z,99494.50
2023-04-18T00:48:20.877Z,99483.34
2023-04-18T00:50:47.484Z,99490.66
2023-04-18T00:53:15.878Z,99485.03
2023-04-18T00:55:42.653Z,99485.81
2023-04-18T00:58:09.320Z,99486.09
2023-04-18T01:00:36.030Z,99477.75
2023-04-18T01:03:02.937Z,99482.34
2023-04-18T01:05:29.893Z,99484.41
2023-04-18T01:08:00.717Z,99479.84
2023-04-18T01:10:28.630Z,99477.75
2023-04-18T01:13:16.497Z,99473.66
2023-04-18T01:15:45.399Z,99478.56
2023-04-18T01:18:13.564Z,99470.22
2023-04-18T01:20:45.654Z,99474.16
2023-04-18T01:23:12.663Z,99469.50
2023-04-18T01:25:39.678Z,99470.84
2023-04-18T01:28:06.883Z,99470.50
2023-04-18T01:30:34.465Z,99459.00
2023-04-18T01:33:02.699Z,99470.97
2023-04-18T01:35:29.593Z,99461.69
2023-04-18T01:37:57.025Z,99459.31
2023-04-18T01:40:24.571Z,99451.75
2023-04-18T01:42:51.407Z,99456.97
2023-04-18T01:45:19.950Z,99460.69
2023-04-18T01:47:46.990Z,99449.84
2023-04-18T01:50:14.068Z,99446.06
2023-04-18T01:52:41.201Z,99453.19
2023-04-18T01:55:12.270Z,99451.19
2023-04-18T01:57:39.096Z,99456.16
2023-04-18T02:00:07.557Z,99447.94
2023-04-18T02:02:34.296Z,99452.94
2023-04-18T02:05:01.067Z,99449.88
2023-04-18T02:07:27.709Z,99446.63
2023-04-18T02:10:00.169Z,99443.06
2023-04-18T02:12:26.896Z,99448.50
2023-04-18T02:14:55.716Z,99446.53
2023-04-18T02:17:23.322Z,99456.53
2023-04-18T02:19:51.378Z,99451.56
2023-04-18T02:22:20.413Z,99452.31
2023-04-18T02:24:46.995Z,99447.94
2023-04-18T02:27:13.599Z,99451.44
2023-04-18T02:29:40.214Z,99452.50
2023-04-18T02:32:07.014Z,99451.00
2023-04-18T02:34:33.756Z,99449.69
2023-04-18T02:37:00.425Z,99456.44
2023-04-18T02:39:27.111Z,99456.66
2023-04-18T02:42:03.683Z,99457.66
2023-04-18T02:44:30.320Z,99452.31
2023-04-18T02:46:56.896Z,99456.03
2023-04-18T02:49:23.506Z,99456.44
2023-04-18T02:51:50.050Z,99448.44
2023-04-18T02:54:16.764Z,99454.69
2023-04-18T02:56:44.117Z,99451.25
2023-04-18T02:59:10.917Z,99456.38
2023-04-18T03:01:37.544Z,99455.59
2023-04-18T03:04:04.466Z,99462.28
2023-04-18T03:06:31.754Z,99456.44
2023-04-18T03:08:58.471Z,99463.81
2023-04-18T03:11:25.173Z,99457.97
2023-04-18T03:13:51.832Z,99459.47
2023-04-18T03:16:18.612Z,99468.38
2023-04-18T03:18:45.382Z,99470.97
2023-04-18T03:21:11.962Z,99475.53
2023-04-18T03:23:38.644Z,99466.00
2023-04-18T03:26:08.393Z,99469.69
2023-04-18T03:28:35.316Z,99467.94
2023-04-18T03:31:02.080Z,99469.47
2023-04-18T03:33:28.772Z,99472.38
2023-04-18T03:35:56.319Z,99471.97
2023-04-18T03:38:22.982Z,99464.66
2023-04-18T03:40:49.614Z,99471.97
2023-04-18T03:43:16.255Z,99476.56
2023-04-18T03:45:44.071Z,99472.69
2023-04-18T03:48:14.516Z,99473.13
2023-04-18T03:50:41.177Z,99471.16
2023-04-18T03:53:07.785Z,99475.69
2023-04-18T03:55:34.607Z,99477.16
2023-04-18T03:58:01.234Z,99469.25
2023-04-18T04:00:27.857Z,99472.13
2023-04-18T04:02:54.521Z,99482.09
2023-04-18T04:05:21.172Z,99471.47
2023-04-18T04:07:47.879Z,99466.50
2023-04-18T04:10:14.601Z,99479.63
2023-04-18T04:12:41.228Z,99476.41
2023-04-18T04:15:10.034Z,99470.63
2023-04-18T04:17:37.840Z,99475.13
2023-04-18T04:20:05.438Z,99467.81
2023-04-18T04:22:32.651Z,99471.91
2023-04-18T04:25:00.663Z,99470.63
2023-04-18T04:27:27.232Z,99474.13
2023-04-18T04:29:53.940Z,99475.31
2023-04-18T04:32:21.558Z,99478.94
2023-04-18T04:34:56.964Z,99478.00
2023-04-18T04:37:23.636Z,99487.19
2023-04-18T04:39:50.230Z,99481.16
2023-04-18T04:42:17.436Z,99485.00
2023-04-18T04:44:44.194Z,99484.75
2023-04-18T04:47:13.468Z,99487.78
2023-04-18T04:49:40.087Z,99490.59
2023-04-18T04:52:06.898Z,99493.75
2023-04-18T04:54:33.579Z,99489.63
2023-04-18T04:57:01.445Z,99488.53
2023-04-18T04:59:28.037Z,99493.56
2023-04-18T05:01:54.656Z,99496.25
2023-04-18T05:04:21.391Z,99490.50
2023-04-18T05:06:48.201Z,99492.22
2023-04-18T05:09:14.810Z,99492.88
2023-04-18T05:11:41.358Z,99503.91
2023-04-18T05:14:07.963Z,99504.38
2023-04-18T05:16:34.817Z,99508.66
2023-04-18T05:19:01.888Z,99505.00
2023-04-18T05:21:29.317Z,99495.81
2023-04-18T05:23:56.155Z,99502.38
2023-04-18T05:26:23.181Z,99507.56
2023-04-18T05:28:49.814Z,99502.16
2023-04-18T05:31:16.458Z,99513.25
2023-04-18T05:33:43.123Z,99509.88
2023-04-18T05:36:20.377Z,99516.53
2023-04-18T05:38:47.000Z,99512.25
2023-04-18T05:41:13.792Z,99504.16
2023-04-18T05:43:41.772Z,99502.16
2023-04-18T05:46:09.140Z,99509.66
2023-04-18T05:48:35.819Z,99508.16
2023-04-18T05:51:11.093Z,99517.47
2023-04-18T05:53:38.258Z,99511.28
2023-04-18T05:56:05.925Z,99519.00
2023-04-18T05:58:33.469Z,99515.38
2023-04-18T06:01:00.037Z,99520.59
2023-04-18T06:03:26.770Z,99516.69
2023-04-18T06:05:53.700Z,99520.91
2023-04-18T06:08:20.429Z,99518.97
2023-04-18T06:10:46.981Z,99515.94
2023-04-18T06:13:13.619Z,99526.97
2023-04-18T06:15:40.848Z,99530.91
2023-04-18T06:18:07.603Z,99539.09
2023-04-18T06:20:34.982Z,99542.41
2023-04-18T06:23:01.558Z,99535.31
2023-04-18T06:25:28.182Z,99545.41
2023-04-18T06:27:54.884Z,99551.22
2023-04-18T06:30:22.179Z,99541.31
2023-04-18T06:32:49.283Z,99543.97
2023-04-18T06:35:16.571Z,99538.47
2023-04-18T06:37:44.699Z,99545.03
2023-04-18T06:40:12.245Z,99550.41
2023-04-18T06:42:39.136Z,99544.81
2023-04-18T06:45:06.679Z,99545.22
2023-04-18T06:47:33.404Z,99554.59
2023-04-18T06:49:59.988Z,99549.09
2023-04-18T06:52:26.582Z,99553.69
2023-04-18T06:54:53.170Z,99551.44
2023-04-18T06:57:19.809Z,99555.72
2023-04-18T06:59:47.701Z,99563.66
2023-04-18T07:02:14.648Z,99567.69
2023-04-18T07:04:41.433Z,99554.63
2023-04-18T07:07:11.489Z,99560.44
2023-04-18T07:09:38.056Z,99559.53
2023-04-18T07:12:05.036Z,99564.66
2023-04-18T07:14:33.576Z,99561.50
2023-04-18T07:17:01.495Z,99571.28
2023-04-18T07:19:28.180Z,99563.06
2023-04-18T07:21:55.834Z,99560.22
2023-04-18T07:24:23.504Z,99564.22
2023-04-18T07:26:54.403Z,99566.41
2023-04-18T07:29:21.618Z,99568.97
2023-04-18T07:31:51.913Z,99569.53
2023-04-18T07:34:18.558Z,99573.63
2023-04-18T07:36:45.368Z,99577.84
2023-04-18T07:39:11.970Z,99575.97
2023-04-18T07:41:38.570Z,99571.25
2023-04-18T07:44:10.742Z,99572.94
2023-04-18T07:46:37.424Z,99563.69
2023-04-18T07:49:04.525Z,99578.25
2023-04-18T07:51:31.622Z,99580.09
2023-04-18T07:53:59.336Z,99572.91
2023-04-18T07:56:27.339Z,99578.47
2023-04-18T07:58:53.961Z,99575.63
2023-04-18T08:01:24.054Z,99576.75
2023-04-18T08:03:51.804Z,99571.81
2023-04-18T08:06:29.015Z,99563.47
2023-04-18T08:08:55.678Z,99578.28
2023-04-18T08:11:22.298Z,99575.94
2023-04-18T08:13:48.921Z,99571.56
2023-04-18T08:16:17.509Z,99569.88
2023-04-18T08:18:44.327Z,99573.91
2023-04-18T08:21:11.027Z,99577.53
2023-04-18T08:23:37.641Z,99580.66
2023-04-18T08:26:04.336Z,99573.03
2023-04-18T08:28:31.010Z,99592.31
2023-04-18T08:30:57.646Z,99584.41
2023-04-18T08:33:24.511Z,99577.06
2023-04-18T08:35:51.785Z,99577.19
2023-04-18T08:38:19.111Z,99577.41
2023-04-18T08:40:46.260Z,99584.00
2023-04-18T08:43:15.063Z,99571.28
2023-04-18T08:45:44.398Z,99588.56
2023-04-18T08:48:16.160Z,99581.59
2023-04-18T08:50:44.236Z,99582.94
2023-04-18T08:53:11.577Z,99583.88
2023-04-18T08:55:38.288Z,99579.47
2023-04-18T08:58:06.784Z,99580.28
2023-04-18T09:00:33.977Z,99587.84
2023-04-18T09:03:03.638Z,99581.91
2023-04-18T09:05:30.476Z,99586.44
2023-04-18T09:07:57.363Z,99588.88
2023-04-18T09:10:33.298Z,99580.13
2023-04-18T09:13:03.060Z,99574.59
2023-04-18T09:15:30.470Z,99581.16
2023-04-18T09:18:01.554Z,99573.28
2023-04-18T09:20:42.030Z,99585.09
2023-04-18T09:23:14.359Z,99586.38
2023-04-18T09:25:48.475Z,99584.50
2023-04-18T09:28:29.157Z,99580.44
2023-04-18T09:31:11.478Z,99582.69
2023-04-18T09:33:42.760Z,99579.25
2023-04-18T09:36:31.062Z,99577.81
2023-04-18T09:38:57.656Z,99579.03
2023-04-18T09:41:24.607Z,99583.34
2023-04-18T09:44:14.423Z,99570.25
2023-04-18T09:46:43.348Z,99578.63
2023-04-18T09:49:12.568Z,99579.81
2023-04-18T09:51:41.957Z,99571.97
2023-04-18T09:54:11.200Z,99584.75
2023-04-18T09:56:43.670Z,99574.94
2023-04-18T09:59:12.168Z,99582.94
2023-04-18T10:01:41.095Z,99581.56
2023-04-18T10:04:09.016Z,99588.47
2023-04-18T10:06:41.889Z,99574.00
2023-04-18T10:09:09.571Z,99580.00
2023-04-18T10:11:36.828Z,99576.75
2023-04-18T10:14:09.247Z,99580.78
2023-04-18T10:16:37.917Z,99582.41
2023-04-18T10:19:25.814Z,99588.63
2023-04-18T10:21:58.277Z,99589.84
2023-04-18T10:24:54.056Z,99584.00
2023-04-18T10:27:48.441Z,99585.94
2023-04-18T10:30:16.497Z,99578.09
2023-04-18T10:32:43.412Z,99585.19
2023-04-18T10:35:11.084Z,99583.69
2023-04-18T10:37:51.698Z,99583.94
2023-04-18T10:40:34.223Z,99583.72
2023-04-18T10:43:01.295Z,99577.00
2023-04-18T10:45:36.084Z,99574.44
2023-04-18T10:48:29.154Z,99575.38
2023-04-18T10:51:16.390Z,99574.34
2023-04-18T10:53:55.256Z,99570.72
2023-04-18T10:56:22.195Z,99577.53
2023-04-18T10:58:53.253Z,99571.03
2023-04-18T11:01:30.278Z,99568.81
2023-04-18T11:04:00.035Z,99574.19
2023-04-18T11:06:27.545Z,99563.94
2023-04-18T11:09:14.052Z,99560.59
2023-04-18T11:11:43.309Z,99554.44
2023-04-18T11:14:10.516Z,99561.72
2023-04-18T11:16:37.674Z,99548.78
2023-04-18T11:19:25.784Z,99552.88
2023-04-18T11:21:52.460Z,99553.16
2023-04-18T11:24:25.098Z,99561.25
2023-04-18T11:26:55.662Z,99552.19
2023-04-18T11:29:22.837Z,99560.50
2023-04-18T11:31:55.779Z,99552.44
2023-04-18T11:34:30.494Z,99547.03
2023-04-18T11:36:57.579Z,99546.38
2023-04-18T11:39:24.551Z,99557.25
2023-04-18T11:41:51.551Z,99547.63
2023-04-18T11:44:23.485Z,99543.94
2023-04-18T11:46:51.279Z,99560.63
2023-04-18T11:49:32.110Z,99547.09
2023-04-18T11:51:59.799Z,99548.50
2023-04-18T11:54:44.524Z,99552.84
2023-04-18T11:57:25.202Z,99551.97
2023-04-18T12:00:00.722Z,99550.59
2023-04-18T12:02:40.851Z,99553.91
2023-04-18T12:05:08.238Z,99555.88
2023-04-18T12:07:44.174Z,99552.72
2023-04-18T12:10:19.636Z,99553.16
2023-04-18T12:12:51.532Z,99546.66
2023-04-18T12:15:19.338Z,99553.56
2023-04-18T12:17:53.488Z,99558.72
2023-04-18T12:20:20.180Z,99553.91
2023-04-18T12:22:49.486Z,99544.38
2023-04-18T12:25:24.392Z,99554.34
2023-04-18T12:27:57.961Z,99541.91
2023-04-18T12:30:30.259Z,99537.50
2023-04-18T12:33:02.820Z,99541.91
2023-04-18T12:35:31.537Z,99548.50
2023-04-18T12:38:01.543Z,99547.75
2023-04-18T12:40:30.101Z,99540.69
2023-04-18T12:42:56.941Z,99542.66
2023-04-18T12:45:24.597Z,99549.31
2023-04-18T12:47:52.501Z,99554.28
2023-04-18T12:50:25.108Z,99541.47
2023-04-18T12:52:54.477Z,99544.03
2023-04-18T12:55:22.564Z,99533.78
2023-04-18T12:57:52.095Z,99549.66
2023-04-18T13:00:18.682Z,99541.81
2023-04-18T13:02:47.856Z,99549.97
2023-04-18T13:05:17.019Z,99555.97
2023-04-18T13:07:44.490Z,99546.63
2023-04-18T13:10:13.630Z,99549.31
2023-04-18T13:12:41.332Z,99553.38
2023-04-18T13:15:09.722Z,99555.34
2023-04-18T13:17:38.100Z,99553.81
2023-04-18T13:20:12.844Z,99558.47
2023-04-18T13:22:41.870Z,99536.03
2023-04-18T13:25:12.795Z,99543.56
2023-04-18T13:27:41.889Z,99543.38
2023-04-18T13:30:11.795Z,99543.47
2023-04-18T13:32:40.207Z,99553.31
2023-04-18T13:35:08.706Z,99548.31
2023-04-18T13:37:35.689Z,99542.50
2023-04-18T13:40:06.514Z,99550.63
2023-04-18T13:42:37.896Z,99541.88
2023-04-18T13:45:05.404Z,99543.81
2023-04-18T13:47:32.011Z,99551.38
2023-04-18T13:49:58.668Z,99545.31
2023-04-18T13:52:25.905Z,99545.16
2023-04-18T13:54:53.682Z,99553.75
2023-04-18T13:57:20.805Z,99535.44
2023-04-18T13:59:47.435Z,99548.44
2023-04-18T14:02:14.304Z,99543.38
2023-04-18T14:04:41.339Z,99551.97
2023-04-18T14:07:08.964Z,99551.63
2023-04-18T14:09:35.551Z,99557.75
2023-04-18T14:12:02.282Z,99561.13
2023-04-18T14:14:29.401Z,99549.25
2023-04-18T14:16:56.019Z,99546.09
2023-04-18T14:19:22.669Z,99545.59
2023-04-18T14:21:49.336Z,99543.16
2023-04-18T14:24:16.038Z,99543.09
2023-04-18T14:26:43.866Z,99538.94
2023-04-18T14:29:11.451Z,99538.09
2023-04-18T14:31:38.217Z,99531.81
2023-04-18T14:34:05.510Z,99536.34
2023-04-18T14:36:32.576Z,99537.66
2023-04-18T14:38:59.182Z,99541.41
2023-04-18T14:41:26.060Z,99536.88
2023-04-18T14:43:52.789Z,99545.66
2023-04-18T14:46:28.021Z,99540.19
2023-04-18T14:48:54.676Z,99554.03
2023-04-18T14:51:21.260Z,99545.00
2023-04-18T14:53:47.825Z,99542.94
2023-04-18T14:56:15.777Z,99543.22
2023-04-18T14:58:43.708Z,99553.28
2023-04-18T15:01:10.334Z,99554.22
2023-04-18T15:03:37.031Z,99560.69
2023-04-18T15:06:03.988Z,99568.50
2023-04-18T15:08:32.690Z,99561.13
2023-04-18T15:10:59.636Z,99560.69
2023-04-18T15:13:26.421Z,99550.09
2023-04-18T15:15:54.257Z,99559.03
2023-04-18T15:18:26.912Z,99556.75
2023-04-18T15:20:53.727Z,99553.91
2023-04-18T15:23:20.365Z,99559.94
2023-04-18T15:25:46.985Z,99559.03
2023-04-18T15:28:13.886Z,99555.41
2023-04-18T15:30:40.841Z,99556.72
2023-04-18T15:33:07.990Z,99567.97
2023-04-18T15:35:35.675Z,99562.28
2023-04-18T15:38:02.628Z,99562.50
2023-04-18T15:40:29.219Z,99563.00
2023-04-18T15:42:57.605Z,99553.72
2023-04-18T15:45:24.252Z,99566.28
2023-04-18T15:47:51.447Z,99565.19
2023-04-18T15:50:18.245Z,99561.72
2023-04-18T15:52:44.852Z,99556.34
2023-04-18T15:55:13.011Z,99566.63
2023-04-18T15:57:41.865Z,99566.94
2023-04-18T16:00:17.720Z,99565.09
2023-04-18T16:02:45.841Z,99560.81
2023-04-18T16:05:13.738Z,99564.53
2023-04-18T16:07:41.957Z,99568.91
2023-04-18T16:10:10.311Z,99587.72
2023-04-18T16:12:38.662Z,99577.28
2023-04-18T16:15:08.192Z,99573.69
2023-04-18T16:17:36.057Z,99583.59
2023-04-18T16:20:03.515Z,99580.78
2023-04-18T16:22:30.190Z,99577.84
2023-04-18T16:24:56.816Z,99570.28
2023-04-18T16:27:23.421Z,99570.13
2023-04-18T16:29:50.104Z,99574.03
2023-04-18T16:32:16.768Z,99571.75
2023-04-18T16:34:43.352Z,99570.91
2023-04-18T16:37:09.994Z,99574.78
2023-04-18T16:39:36.826Z,99574.22
2023-04-18T16:42:03.765Z,99573.28
2023-04-18T16:44:30.608Z,99571.84
2023-04-18T16:46:57.203Z,99576.84
2023-04-18T16:49:24.073Z,99574.47
2023-04-18T16:51:51.439Z,99579.25
2023-04-18T16:54:18.123Z,99578.47
2023-04-18T16:56:44.831Z,99575.84
2023-04-18T16:59:11.588Z,99579.69
2023-04-18T17:01:38.602Z,99585.84
2023-04-18T17:04:05.742Z,99582.22
2023-04-18T17:06:32.557Z,99584.78
2023-04-18T17:08:59.287Z,99589.63
2023-04-18T17:11:26.410Z,99584.91
2023-04-18T17:13:53.207Z,99581.56
2023-04-18T17:16:19.902Z,99592.34
2023-04-18T17:18:46.605Z,99599.28
2023-04-18T17:21:13.261Z,99591.66
2023-04-18T17:23:42.122Z,99598.06
2023-04-18T17:26:09.658Z,99599.09
2023-04-18T17:28:36.403Z,99598.94
2023-04-18T17:31:03.644Z,99586.06
2023-04-18T17:33:31.485Z,99595.78
2023-04-18T17:35:58.725Z,99601.84
2023-04-18T17:38:25.641Z,99592.56
2023-04-18T17:41:03.452Z,99598.66
2023-04-18T17:43:30.836Z,99598.72
2023-04-18T17:46:00.211Z,99599.91
2023-04-18T17:48:26.837Z,99606.91
2023-04-18T17:50:53.418Z,99606.50
2023-04-18T17:53:20.042Z,99614.31
2023-04-18T17:55:48.700Z,99616.59
2023-04-18T17:58:16.706Z,99620.44
2023-04-18T18:00:43.419Z,99618.69
2023-04-18T18:03:14.567Z,99612.94
2023-04-18T18:05:48.096Z,99622.75
2023-04-18T18:08:14.840Z,99621.41
2023-04-18T18:10:42.481Z,99626.31
2023-04-18T18:13:09.134Z,99625.34
2023-04-18T18:15:35.716Z,99623.63
2023-04-18T18:18:05.578Z,99626.97
2023-04-18T18:20:32.264Z,99615.81
2023-04-18T18:23:02.592Z,99621.09
2023-04-18T18:25:29.379Z,99627.88
2023-04-18T18:27:55.952Z,99630.53
2023-04-18T18:30:22.582Z,99629.47
2023-04-18T18:32:49.444Z,99632.97
2023-04-18T18:35:16.159Z,99640.31
2023-04-18T18:37:42.781Z,99646.91
2023-04-18T18:40:10.014Z,99640.00
2023-04-18T18:42:36.915Z,99638.47
2023-04-18T18:45:13.570Z,99653.91
2023-04-18T18:47:40.425Z,99641.50
2023-04-18T18:50:07.683Z,99650.91
2023-04-18T18:52:34.376Z,99655.66
2023-04-18T18:55:01.191Z,99656.34
2023-04-18T18:57:27.867Z,99658.88
2023-04-18T18:59:55.791Z,99662.47
2023-04-18T19:02:23.022Z,99658.72
2023-04-18T19:04:49.840Z,99664.81
2023-04-18T19:07:16.687Z,99664.03
2023-04-18T19:09:43.316Z,99674.91
2023-04-18T19:12:10.018Z,99662.31
2023-04-18T19:14:36.710Z,99662.91
2023-04-18T19:17:03.385Z,99673.06
2023-04-18T19:19:30.226Z,99670.44
2023-04-18T19:21:57.725Z,99668.75
2023-04-18T19:24:24.338Z,99671.22
2023-04-18T19:26:50.965Z,99673.88
2023-04-18T19:29:17.984Z,99670.88
2023-04-18T19:31:44.662Z,99672.75
2023-04-18T19:34:12.042Z,99676.25
2023-04-18T19:36:38.850Z,99673.19
2023-04-18T19:39:05.584Z,99668.47
2023-04-18T19:41:32.173Z,99676.19
2023-04-18T19:43:58.840Z,99667.09
2023-04-18T19:46:26.044Z,99675.00
2023-04-18T19:48:52.650Z,99673.50
2023-04-18T19:51:19.304Z,99673.34
2023-04-18T19:53:45.985Z,99669.75
2023-04-18T19:56:14.125Z,99663.72
2023-04-18T19:58:44.922Z,99672.72
2023-04-18T20:01:13.355Z,99668.22
2023-04-18T20:03:40.867Z,99672.56
2023-04-18T20:06:08.551Z,99668.97
2023-04-18T20:08:37.875Z,99674.91
2023-04-18T20:11:08.406Z,99681.72
2023-04-18T20:13:36.554Z,99678.66
2023-04-18T20:16:05.470Z,99678.63
2023-04-18T20:18:33.789Z,99679.22
2023-04-18T20:21:00.367Z,99683.38
2023-04-18T20:23:26.997Z,99682.25
2023-04-18T20:25:53.577Z,99681.53
2023-04-18T20:28:20.248Z,99681.50
2023-04-18T20:30:47.874Z,99686.63
2023-04-18T20:33:14.718Z,99679.41
2023-04-18T20:35:41.506Z,99680.72
2023-04-18T20:38:09.681Z,99678.47
2023-04-18T20:40:38.715Z,99681.91
2023-04-18T20:43:06.699Z,99680.00
2023-04-18T20:45:37.248Z,99674.31
2023-04-18T20:48:04.798Z,99680.72
2023-04-18T20:50:31.377Z,99675.84
2023-04-18T20:53:00.302Z,99677.75
2023-04-18T20:55:27.173Z,99674.13
2023-04-18T20:57:53.874Z,99675.06
2023-04-18T21:00:20.579Z,99679.22
2023-04-18T21:02:47.294Z,99676.75
2023-04-18T21:05:13.991Z,99681.53
2023-04-18T21:07:40.626Z,99685.31
2023-04-18T21:10:07.968Z,99686.44
2023-04-18T21:12:34.552Z,99683.03
2023-04-18T21:15:02.073Z,99688.34
2023-04-18T21:17:28.714Z,99679.06
2023-04-18T21:19:55.676Z,99682.06
2023-04-18T21:22:22.274Z,99689.09
2023-04-18T21:24:48.991Z,99689.44
2023-04-18T21:27:16.143Z,99682.78
2023-04-18T21:29:42.780Z,99688.13
2023-04-18T21:32:09.487Z,99694.34
2023-04-18T21:34:36.469Z,99691.34
2023-04-18T21:37:03.122Z,99687.53
2023-04-18T21:39:29.671Z,99685.44
2023-04-18T21:41:57.096Z,99688.34
2023-04-18T21:44:23.673Z,99692.66
2023-04-18T21:46:50.241Z,99692.31
2023-04-18T21:49:19.319Z,99687.19
2023-04-18T21:51:46.127Z,99683.56
2023-04-18T21:54:13.022Z,99687.59
2023-04-18T21:56:39.751Z,99681.91
2023-04-18T21:59:06.381Z,99679.25
2023-04-18T22:01:34.256Z,99678.09
2023-04-18T22:04:01.866Z,99672.06
2023-04-18T22:06:29.259Z,99685.28
2023-04-18T22:08:56.297Z,99680.75
2023-04-18T22:11:23.454Z,99679.97
2023-04-18T22:13:50.130Z,99682.25
2023-04-18T22:16:17.425Z,99677.00
2023-04-18T22:18:44.042Z,99677.75
2023-04-18T22:21:10.654Z,99676.97
2023-04-18T22:23:37.242Z,99678.88
2023-04-18T22:26:03.820Z,99672.63
2023-04-18T22:28:30.697Z,99674.72
2023-04-18T22:30:57.320Z,99670.16
2023-04-18T22:33:24.586Z,99678.44
2023-04-18T22:35:51.399Z,99670.69
2023-04-18T22:38:18.002Z,99673.94
2023-04-18T22:40:44.746Z,99678.13
2023-04-18T22:43:13.812Z,99675.63
2023-04-18T22:45:40.467Z,99669.38
2023-04-18T22:48:11.206Z,99676.78
2023-04-18T22:50:42.330Z,99668.09
2023-04-18T22:53:10.703Z,99681.16
2023-04-18T22:55:41.688Z,99678.50
2023-04-18T22:58:09.333Z,99673.97
2023-04-18T23:00:36.938Z,99675.06
2023-04-18T23:03:04.177Z,99666.97
2023-04-18T23:05:30.961Z,99663.94
2023-04-18T23:08:00.116Z,99670.91
2023-04-18T23:10:27.066Z,99668.47
2023-04-18T23:12:53.641Z,99666.41
2023-04-18T23:15:22.572Z,99669.81
2023-04-18T23:17:52.790Z,99664.88
2023-04-18T23:20:20.574Z,99655.22
2023-04-18T23:22:49.862Z,99660.31
2023-04-18T23:25:16.772Z,99672.84
2023-04-18T23:27:43.538Z,99669.59
2023-04-18T23:30:11.816Z,99672.44
2023-04-18T23:32:38.457Z,99669.06
2023-04-18T23:35:06.728Z,99682.09
2023-04-18T23:37:33.383Z,99675.66
2023-04-18T23:40:00.442Z,99669.06
2023-04-18T23:42:27.302Z,99667.53
2023-04-18T23:44:54.396Z,99675.84
2023-04-18T23:47:21.718Z,99657.31
2023-04-18T23:49:48.318Z,99662.63
2023-04-18T23:52:14.893Z,99663.94
2023-04-18T23:54:41.544Z,99662.03
2023-04-18T23:57:08.146Z,99668.66
2023-04-18T23:59:34.763Z,99660.31
